Saint Peter Port, United Kingdom
Current Conditions -  °F | °C
As of 5:20 AM on Monday 26 Jan 2015 (Local Time) from EGJB Reporting Station
Drizzle Drizzle  
Wind Chill: 50°   Ceiling: 300
Heat Index: 50°   Visibility: 2.5mi
Dew Point: 50°   Wind: 18mph
Humidity: 100%   Direction: 250°WSW
Pressure: 30.33"   Gusts: NA
Location:  49.46°N, 2.54°W
Report Text: EGJB 260420Z 25016KT 4000 -DZ BR FEW001 BKN003 10/10 Q1027 REDZ
Loading
Personal Weather Stations






























Interactive Weather Map New forecast layout! Learn more

10-Day Weather Forecast

Advertisements
Track Severe Weather on mobile